Station: Badgingarra  

  Atmospheric Gas Attenuation - ITU Rec 676-11   ----------------- dB/100km -----------------
Date Time Temp RH % AH g/m3 Dew Point Wind Direction Speed kph Gust kph Barometer mB Rainfall Since 9am 24GHz 47GHz 76GHz 122GHz 134GHz 241GHz
01/09 09:50 15 78 10 11.2 15 20 1013.1 0 22.5 27.8 44.9 118.0 115.5 398.6
01/09 09:40 14.7 75 9.44 10.3 20 26 1013.1 0 21.3 27.0 42.7 112.3 108.4 373.5
01/09 09:30 14.8 69 8.74 9.2 17 26 1013.1 0 19.8 25.8 39.8 104.6 99.0 340.6
01/09 09:20 14.7 74 9.32 10.1 15 19 1013.1 0 21.1 26.8 42.2 111.0 106.8 367.9
01/09 09:10 14.2 76 9.28 10 13 19 1013.1 0 21.0 26.9 42.3 111.2 106.9 368.4
01/09 09:00 14 78 9.41 10.2 15 20 1013.1 0 21.3 27.2 43.0 113.0 109.0 375.5
01/09 08:50 13.8 84 10.01 11.1 13 17 1013.1 0.8 22.6 28.2 45.6 119.9 117.5 405.3
01/09 08:40 13.4 88 10.23 11.5 13 19 1013.1 0.8 23.1 28.7 46.8 123.1 121.2 418.2
01/09 08:30 12.7 92 10.24 11.4 13 17 1013.1 0.8 23.2 29.0 47.2 124.3 122.5 422.5
01/09 08:20 12.5 95 10.45 11.7 13 17 1013.1 0.8 23.6 29.4 48.3 127.1 125.8 434.1
01/09 08:10 12.2 95 10.25 11.4 13 20 1013.1 0.8 23.2 29.2 47.6 125.2 123.4 425.7
01/09 08:00 12 95 10.13 11.2 15 19 1013.1 0.8 23.0 29.0 47.2 124.2 122.0 420.8
01/09 07:50 11.7 95 9.94 10.9 13 17 1013.1 0.8 22.6 28.8 46.5 122.4 119.8 413.0
01/09 07:40 11.4 95 9.75 10.6 15 19 1013.1 0.8 22.2 28.6 45.9 120.7 117.5 405.1
01/09 07:30 11.3 95 9.69 10.5 13 19 1013.1 0.8 22.1 28.5 45.7 120.2 116.8 402.6
01/09 07:20 11 94 9.41 10.1 13 17 1013.1 0.8 21.5 28.1 44.7 117.4 113.3 390.3
01/09 07:10 10.9 94 9.35 10 13 17 1013.1 0.8 21.3 28.0 44.5 116.9 112.6 387.8
01/09 07:00 10.7 93 9.14 9.6 11 15 1013.1 0.8 20.9 27.7 43.7 114.8 109.9 378.5
01/09 06:50 10.8 93 9.19 9.7 13 17 1013.1 0.8 21.0 27.8 43.8 115.2 110.5 380.4
01/09 06:40 10.7 93 9.14 9.6 13 15 1013.1 0.8 20.9 27.7 43.7 114.8 109.9 378.5
01/09 06:30 10.5 93 9.02 9.4 13 17 1013.1 0.8 20.7 27.6 43.3 113.7 108.5 373.5
01/09 06:20 10.1 93 8.8 9 13 17 1013.1 0.8 20.2 27.3 42.5 111.8 106.0 364.6
01/09 06:10 9.7 92 8.48 8.5 13 17 1013.1 0.8 19.5 26.9 41.4 108.7 102.1 350.9
01/09 06:00 9.8 92 8.54 8.6 13 15 1013.1 0.8 19.7 27.0 41.6 109.2 102.8 353.3
01/09 05:50 9.7 92 8.48 8.5 15 17 1013.1 0.8 19.5 26.9 41.4 108.7 102.1 350.9
01/09 05:40 9.5 92 8.38 8.3 13 17 1013.1 0.8 19.3 26.8 41.1 107.9 101.0 346.9
01/09 05:30 9.7 91 8.39 8.3 15 17 1013.1 0.8 19.3 26.8 41.0 107.7 100.8 346.5
01/09 05:20 10 90 8.46 8.4 17 20 1013.1 0.8 19.5 26.8 41.2 108.1 101.4 348.5
01/09 05:10 10.3 90 8.62 8.7 19 22 1013.1 0.8 19.8 27.0 41.7 109.4 103.2 354.9
01/09 05:00 10.4 91 8.77 9 19 24 1013.1 0.8 20.1 27.2 42.3 111.0 105.2 361.8
01/09 04:50 10.4 93 8.97 9.3 19 24 1013.1 0.8 20.6 27.5 43.1 113.3 108.0 371.6
01/09 04:40 10.5 93 9.02 9.4 20 26 1013.1 0.8 20.7 27.6 43.3 113.7 108.5 373.5
01/09 04:30 10.8 94 9.29 9.9 20 26 1013.1 0.8 21.2 28.0 44.3 116.3 111.9 385.4
01/09 04:20 11 95 9.51 10.2 20 28 1013.1 0.8 21.7 28.3 45.1 118.5 114.7 395.2
01/09 04:10 11.2 95 9.63 10.4 22 32 1013.1 0.8 21.9 28.4 45.5 119.6 116.1 400.2
01/09 04:00 11.4 96 9.86 10.8 26 33 1013.1 0.8 22.4 28.8 46.4 122.0 119.1 410.6
01/09 03:50 11.7 96 10.04 11.1 24 33 1013.1 0.8 22.8 29.0 47.0 123.6 121.2 418.0
01/09 03:40 11.9 96 10.17 11.3 24 32 1013.1 0.8 23.1 29.1 47.4 124.8 122.7 423.4
01/09 03:30 12 96 10.23 11.4 22 30 1013.1 0.8 23.2 29.2 47.6 125.3 123.4 425.8
01/09 03:20 12.1 96 10.3 11.5 24 32 1013.1 0.8 23.3 29.3 47.9 126.0 124.3 428.8
01/09 03:10 12.4 96 10.49 11.8 24 33 1013.1 0.8 23.7 29.5 48.5 127.7 126.5 436.6
01/09 03:00 12.7 96 10.69 12.1 22 35 1013.1 0.6 24.1 29.8 49.2 129.5 128.9 445.0
01/09 02:50 13.4 96 11.16 12.8 15 20 1013.1 0.6 25.1 30.4 50.8 133.9 134.5 464.6
01/09 02:40 13.4 96 11.16 12.8 15 20 1013.1 0.6 25.1 30.4 50.8 133.9 134.5 464.6
01/09 02:30 13.4 96 11.16 12.8 17 20 1013.1 0.6 25.1 30.4 50.8 133.9 134.5 464.6
01/09 02:20 13.4 96 11.16 12.8 15 22 1013.1 0.6 25.1 30.4 50.8 133.9 134.5 464.6
01/09 02:10 13.4 96 11.16 12.8 15 24 1013.1 0.6 25.1 30.4 50.8 133.9 134.5 464.6
01/09 02:00 13.4 95 11.04 12.6 22 37 1013.1 0.6 24.9 30.2 50.3 132.5 132.8 458.5
01/09 01:50 13.9 96 11.51 13.3 6 22 1013.1 0.4 25.8 30.8 52.1 137.1 138.7 479.3
01/09 01:40 13.8 95 11.32 13 4 6 1013.1 0.2 25.4 30.5 51.3 135.1 136.1 470.3
01/09 01:30 13.7 95 11.25 12.9 2 4 1013.1 0.2 25.3 30.4 51.0 134.4 135.3 467.4
01/09 01:20 13.6 95 11.18 12.8 4 6 1013.1 0.2 25.1 30.3 50.8 133.8 134.4 464.4
01/09 01:10 13.6 95 11.18 12.8 4 6 1013.1 0.2 25.1 30.3 50.8 133.8 134.4 464.4
01/09 01:00 13.6 94 11.06 12.7 6 7 1013.1 0 24.9 30.1 50.3 132.3 132.7 458.4
01/09 00:50 13.8 94 11.2 12.9 7 9 1013.1 0 25.2 30.3 50.7 133.6 134.4 464.2
01/09 00:40 13.8 93 11.08 12.7 6 9 1013.1 0 24.9 30.1 50.2 132.2 132.6 458.2
01/09 00:30 13.8 93 11.08 12.7 7 9 1013.1 0 24.9 30.1 50.2 132.2 132.6 458.2
01/09 00:20 13.8 92 10.96 12.5 7 11 1013.1 0 24.7 29.9 49.7 130.8 130.9 452.1
01/09 00:10 13.4 93 10.81 12.3 4 7 1013.1 0 24.4 29.7 49.3 129.8 129.4 447.0
01/09 00:00 13.3 92 10.63 12 4 6 1013.1 0 24.0 29.5 48.6 127.8 127.0 438.5
31/08 23:50 13.5 91 10.64 12.1 6 7 1013.1 0 24.0 29.4 48.5 127.6 126.8 437.9
31/08 23:40 13.1 92 10.5 11.8 2 7 1013.1 0 23.7 29.3 48.1 126.7 125.5 433.2
31/08 23:30 12.9 92 10.37 11.6 0 0 1013.1 0 23.4 29.1 47.7 125.5 124.0 427.8
31/08 23:20 12.7 92 10.24 11.4 0 2 1013.1 0 23.2 29.0 47.2 124.3 122.5 422.5
31/08 23:10 12.5 92 10.12 11.2 0 0 1013.1 0 22.9 28.8 46.8 123.2 121.1 417.6
31/08 23:00 12.3 92 9.99 11 0 0 1013.1 0 22.7 28.7 46.4 122.1 119.5 412.2
31/08 22:50 12.4 90 9.83 10.9 0 0 1013.1 0 22.3 28.4 45.7 120.1 117.1 403.8
31/08 22:40 12.8 91 10.19 11.4 4 4 1013.1 0 23.1 28.9 47.0 123.6 121.6 419.4
31/08 22:30 13.3 91 10.51 11.9 4 6 1013.1 0 23.7 29.3 48.0 126.4 125.3 432.6
31/08 22:20 13.3 92 10.63 12 4 6 1013.1 0 24.0 29.5 48.6 127.8 127.0 438.5
31/08 22:10 12.8 91 10.19 11.3 0 0 1013.1 0 23.1 28.9 47.0 123.6 121.6 419.4
31/08 22:00 12.6 91 10.07 11.2 2 6 1013.1 0 22.8 28.7 46.6 122.5 120.2 414.6
31/08 21:50 12.6 90 9.96 11 6 6 1013.1 0 22.6 28.5 46.1 121.2 118.6 409.1
31/08 21:40 12.8 90 10.08 11.2 7 7 1013.1 0 22.8 28.7 46.5 122.3 120.0 414.0
31/08 21:30 13 90 10.21 11.4 9 9 1013.1 0 23.1 28.8 46.9 123.5 121.5 419.3
31/08 21:20 13.3 91 10.51 11.9 9 11 1013.1 0 23.7 29.3 48.0 126.4 125.3 432.6
31/08 21:10 13.5 91 10.64 12.1 9 9 1013.1 0 24.0 29.4 48.5 127.6 126.8 437.9
31/08 21:00 13.7 91 10.78 12.3 7 9 1013.1 0 24.3 29.6 49.0 128.9 128.5 443.7
31/08 20:50 13.9 91 10.91 12.5 7 9 1013.1 0 24.5 29.7 49.4 130.1 130.0 449.1
31/08 20:40 14.1 92 11.17 12.8 7 9 1013.1 0 25.1 30.1 50.4 132.8 133.4 460.9
31/08 20:30 14.2 92 11.23 12.9 7 9 1013.1 0 25.2 30.2 50.6 133.3 134.1 463.3
31/08 20:20 14.3 92 11.3 13 6 6 1013.1 0 25.4 30.3 50.9 134.0 134.9 466.2
31/08 20:10 14.4 92 11.37 13.1 7 9 1013.1 0 25.5 30.4 51.1 134.6 135.8 469.2
31/08 20:00 14.3 91 11.18 12.9 7 9 1013.1 0 25.1 30.1 50.3 132.5 133.2 460.2
31/08 19:50 14.3 90 11.06 12.7 9 11 1013.1 0 24.8 29.9 49.8 131.2 131.5 454.2
31/08 19:40 14.7 89 11.21 12.9 9 11 1013.1 0 25.1 30.0 50.2 132.2 132.9 459.3
31/08 19:30 15.2 88 11.42 13.2 11 15 1013.1 0 25.6 30.2 50.8 133.8 135.0 466.8
31/08 19:20 15.6 86 11.44 13.3 15 19 1013.1 0 25.6 30.1 50.6 133.3 134.6 465.4
31/08 19:10 15.9 85 11.51 13.4 11 20 1013.1 0 25.7 30.1 50.7 133.6 135.1 467.0
31/08 19:00 16 84 11.44 13.3 9 13 1013.1 0 25.5 30.0 50.4 132.6 133.9 463.0
31/08 18:50 16.2 83 11.45 13.3 11 15 1013.1 0 25.6 29.9 50.3 132.4 133.7 462.2
31/08 18:40 16.2 83 11.45 13.3 11 19 1013.1 0 25.6 29.9 50.3 132.4 133.7 462.2
31/08 18:30 16.1 84 11.51 13.4 13 17 1013.1 0 25.7 30.0 50.6 133.3 134.7 465.8
31/08 18:20 16.2 85 11.72 13.7 11 15 1013.1 0 26.1 30.4 51.4 135.5 137.5 475.6
31/08 18:10 16.2 85 11.72 13.7 13 17 1013.1 0 26.1 30.4 51.4 135.5 137.5 475.6
31/08 18:00 16.2 84 11.58 13.5 15 22 1013.1 0 25.8 30.1 50.8 133.9 135.5 468.7
31/08 17:50 16.4 83 11.58 13.5 20 32 1013.1 0 25.8 30.1 50.7 133.6 135.2 467.4
31/08 17:40 16.8 81 11.58 13.5 17 26 1013.1 0 25.8 29.9 50.4 132.9 134.5 465.0
31/08 17:30 16.9 77 11.07 12.8 17 26 1013.1 0 24.7 29.0 48.2 126.9 127.2 439.7
31/08 17:20 17.1 74 10.77 12.4 20 26 1013.1 0 24.0 28.4 46.8 123.3 122.8 424.2

Last Refresh: 01-Sep-2026 11:33:30

Bureau of Meteorology